Wivenhoe, United Kingdom
Current Conditions -  °F | °C
As of 11:50 PM on Friday 28 Nov 2014 (Local Time) from EGUW Reporting Station
Broken Clouds Broken Clouds  
Wind Chill: 50°   Ceiling: 9000
Heat Index: 50°   Visibility: 6mi
Dew Point: 48°   Wind: 12mph
Humidity: 94%   Direction: 90°E
Pressure: 29.77"   Gusts: NA
Location:  51.86°N, 0.96°E
Report Text: EGUW 282350Z AUTO 09010KT 9999 BKN090/// BKN130/// 10/09 Q1008
Loading
Personal Weather Stations






























Interactive Weather Map New forecast layout! Learn more

10-Day Weather Forecast

Advertisements
Track Severe Weather on mobile